LTBR/YEI METAR and TAF weather

Enter ICAO airport designator
Station Type Date Time Source
LTBR METAR 2021/09/20 05:50 UTC NOAA

LTBR 200550Z VRB02KT 9999 FEW035 SCT100 21/16 Q1014 NOSIG


Station Type Date Time Source
LTBR Decoded METAR 2021/09/20 05:50 UTC NOAA

Bursa / Yenisehir, Mil-Civ, Turkey (LTBR) 40-15-19N 029-33-45E
Sep 20, 2021 - 01:50 AM EDT / 2021.09.20 0550 UTC
Wind: Variable at 2 MPH (2 KT):0
Visibility: greater than 7 mile(s):0
Sky conditions: partly cloudy
Temperature: 69 F (21 C)
Dew Point: 60 F (16 C)
Relative Humidity: 73%
Pressure (altimeter): 29.94 in. Hg (1014 hPa)
ob: LTBR 200550Z VRB02KT 9999 FEW035 SCT100 21/16 Q1014 NOSIG
cycle: 6

Station Type Date Time Source
LTBR TAF 2021/09/20 06:03 UTC NOAA

TAF LTBR 200440Z 2006/2106 VRB02KT 9999 FEW035
BECMG 2007/2010 CAVOK
BECMG 2100/2103 SCT035 BKN090 PROB40 2103/2106 4000 BR

Example: see airport list